createdAt,value
2017-09-15T00:00:22.145Z,97
2017-09-15T00:01:24.538Z,97
2017-09-15T00:02:26.928Z,97
2017-09-15T00:03:29.662Z,97
2017-09-15T00:04:32.397Z,97
2017-09-15T00:05:35.122Z,97
2017-09-15T00:06:37.518Z,97
2017-09-15T00:07:39.904Z,97
2017-09-15T00:08:42.293Z,97
2017-09-15T00:09:44.688Z,97
2017-09-15T00:10:47.076Z,97
2017-09-15T00:11:49.462Z,97
2017-09-15T00:12:51.854Z,97
2017-09-15T00:13:54.237Z,97
2017-09-15T00:14:56.632Z,98
2017-09-15T00:15:59.026Z,98
2017-09-15T00:17:01.419Z,98
2017-09-15T00:18:04.155Z,98
2017-09-15T00:19:06.548Z,98
2017-09-15T00:20:08.939Z,98
2017-09-15T00:21:11.334Z,98
2017-09-15T00:22:13.726Z,98
2017-09-15T00:23:16.108Z,98
2017-09-15T00:24:18.494Z,98
2017-09-15T00:25:20.893Z,98
2017-09-15T00:26:23.282Z,98
2017-09-15T00:27:25.668Z,98
2017-09-15T00:28:28.063Z,98
2017-09-15T00:29:30.457Z,98
2017-09-15T00:30:33.538Z,98
2017-09-15T00:31:35.935Z,98
2017-09-15T00:32:38.322Z,98
2017-09-15T00:33:40.709Z,98
2017-09-15T00:34:43.107Z,98
2017-09-15T00:35:45.499Z,99
2017-09-15T00:36:48.231Z,99
2017-09-15T00:37:50.626Z,98
2017-09-15T00:38:53.009Z,98
2017-09-15T00:39:55.455Z,98
2017-09-15T00:40:57.879Z,98
2017-09-15T00:42:00.612Z,98
2017-09-15T00:43:03.009Z,98
2017-09-15T00:44:05.412Z,98
2017-09-15T00:45:07.799Z,98
2017-09-15T00:46:10.202Z,98
2017-09-15T00:47:12.944Z,98
2017-09-15T00:48:15.334Z,98
2017-09-15T00:49:17.731Z,98
2017-09-15T00:50:20.121Z,98
2017-09-15T00:51:22.506Z,98
2017-09-15T00:52:24.897Z,98
2017-09-15T00:53:27.287Z,98
2017-09-15T00:54:29.684Z,98
2017-09-15T00:55:32.074Z,99
2017-09-15T00:56:34.473Z,99
2017-09-15T00:57:36.865Z,99
2017-09-15T00:58:39.250Z,99
2017-09-15T00:59:41.644Z,99
2017-09-15T01:00:44.039Z,99
2017-09-15T01:01:46.429Z,99
2017-09-15T01:02:48.823Z,99
2017-09-15T01:03:51.205Z,99
2017-09-15T01:04:53.596Z,99
2017-09-15T01:05:56.001Z,99
2017-09-15T01:06:58.391Z,99
2017-09-15T01:08:00.783Z,99
2017-09-15T01:09:03.178Z,99
2017-09-15T01:10:05.574Z,99
2017-09-15T01:11:07.959Z,99
2017-09-15T01:12:10.355Z,99
2017-09-15T01:13:12.743Z,99
2017-09-15T01:14:15.142Z,99
2017-09-15T01:15:17.534Z,99
2017-09-15T01:16:19.919Z,99
2017-09-15T01:17:22.311Z,99
2017-09-15T01:18:24.702Z,99
2017-09-15T01:19:27.091Z,99
2017-09-15T01:20:29.487Z,99
2017-09-15T01:21:31.883Z,99
2017-09-15T01:22:34.272Z,99
2017-09-15T01:23:36.671Z,99
2017-09-15T01:24:39.404Z,99
2017-09-15T01:25:42.479Z,99
2017-09-15T01:26:44.872Z,99
2017-09-15T01:27:47.261Z,99
2017-09-15T01:28:49.652Z,99
2017-09-15T01:29:52.060Z,99
2017-09-15T01:30:54.778Z,99
2017-09-15T01:31:57.166Z,99
2017-09-15T01:32:59.560Z,99
2017-09-15T01:34:01.953Z,99
2017-09-15T01:35:04.348Z,99
2017-09-15T01:36:06.746Z,99
2017-09-15T01:37:09.135Z,99
2017-09-15T01:38:11.525Z,99
2017-09-15T01:39:13.928Z,99
2017-09-15T01:40:16.312Z,99
2017-09-15T01:41:18.697Z,99
2017-09-15T01:42:21.090Z,99
2017-09-15T01:43:23.481Z,99
2017-09-15T01:44:25.874Z,99
2017-09-15T01:45:28.260Z,99
2017-09-15T01:46:30.652Z,99
2017-09-15T01:47:33.045Z,99
2017-09-15T01:48:35.445Z,99
2017-09-15T01:49:37.835Z,99
2017-09-15T01:50:40.266Z,99
2017-09-15T01:51:42.625Z,99
2017-09-15T01:52:45.020Z,99
2017-09-15T01:53:47.405Z,99
2017-09-15T01:54:49.814Z,99
2017-09-15T01:55:52.193Z,99
2017-09-15T01:56:54.588Z,99
2017-09-15T01:57:56.977Z,99
2017-09-15T01:58:59.371Z,99
2017-09-15T02:00:01.761Z,99
2017-09-15T02:01:04.170Z,99
2017-09-15T02:02:06.893Z,99
2017-09-15T02:03:09.282Z,99
2017-09-15T02:04:11.674Z,99
2017-09-15T02:05:14.071Z,99
2017-09-15T02:06:16.460Z,99
2017-09-15T02:07:18.857Z,99
2017-09-15T02:08:21.248Z,99
2017-09-15T02:09:23.639Z,99
2017-09-15T02:10:26.026Z,99
2017-09-15T02:11:28.470Z,99
2017-09-15T02:12:30.863Z,99
2017-09-15T02:13:33.265Z,99
2017-09-15T02:14:35.646Z,99
2017-09-15T02:15:38.381Z,99
2017-09-15T02:16:40.774Z,99
2017-09-15T02:17:43.502Z,99
2017-09-15T02:18:45.900Z,99
2017-09-15T02:19:48.294Z,99
2017-09-15T02:20:50.680Z,99
2017-09-15T02:21:53.065Z,99
2017-09-15T02:22:55.466Z,99
2017-09-15T02:23:57.859Z,99
2017-09-15T02:25:00.246Z,99
2017-09-15T02:26:02.636Z,99
2017-09-15T02:27:05.021Z,99
2017-09-15T02:28:08.092Z,99
2017-09-15T02:29:10.826Z,99
2017-09-15T02:30:13.214Z,99
2017-09-15T02:31:15.610Z,99
2017-09-15T02:32:18.005Z,99
2017-09-15T02:33:20.398Z,99
2017-09-15T02:34:22.789Z,99
2017-09-15T02:35:25.517Z,99
2017-09-15T02:36:28.248Z,99
2017-09-15T02:37:30.637Z,99
2017-09-15T02:38:33.025Z,99
2017-09-15T02:39:35.415Z,99
2017-09-15T02:40:37.811Z,99
2017-09-15T02:41:40.205Z,99
2017-09-15T02:42:42.592Z,99
2017-09-15T02:43:44.987Z,99
2017-09-15T02:44:47.378Z,99
2017-09-15T02:45:49.779Z,99
2017-09-15T02:46:52.170Z,99
2017-09-15T02:47:54.556Z,99
2017-09-15T02:48:56.948Z,99
2017-09-15T02:49:59.344Z,99
2017-09-15T02:51:01.726Z,99
2017-09-15T02:52:04.130Z,99
2017-09-15T02:53:06.521Z,99
2017-09-15T02:54:08.913Z,99
2017-09-15T02:55:11.301Z,99
2017-09-15T02:56:13.692Z,99
2017-09-15T02:57:16.080Z,99
2017-09-15T02:58:18.479Z,99
2017-09-15T02:59:20.868Z,99
2017-09-15T03:00:23.268Z,99
2017-09-15T03:01:25.662Z,99
2017-09-15T03:02:28.058Z,99
2017-09-15T03:03:30.446Z,99
2017-09-15T03:04:32.837Z,99
2017-09-15T03:05:35.223Z,99
2017-09-15T03:06:37.608Z,99
2017-09-15T03:07:40.006Z,99
2017-09-15T03:08:42.751Z,99
2017-09-15T03:09:45.140Z,99
2017-09-15T03:10:47.531Z,99
2017-09-15T03:11:49.932Z,99
2017-09-15T03:12:52.325Z,99
2017-09-15T03:13:54.726Z,99
2017-09-15T03:14:57.114Z,99
2017-09-15T03:15:59.505Z,99
2017-09-15T03:17:01.898Z,99
2017-09-15T03:18:04.290Z,99
2017-09-15T03:19:06.670Z,99
2017-09-15T03:20:09.065Z,99
2017-09-15T03:21:11.463Z,99
2017-09-15T03:22:13.854Z,99
2017-09-15T03:23:16.246Z,99
2017-09-15T03:24:18.642Z,99
2017-09-15T03:25:21.035Z,99
2017-09-15T03:26:23.421Z,99
2017-09-15T03:27:25.829Z,99
2017-09-15T03:28:28.207Z,99
2017-09-15T03:29:30.598Z,99
2017-09-15T03:30:32.995Z,99
2017-09-15T03:31:35.383Z,99
2017-09-15T03:32:37.767Z,99
2017-09-15T03:33:40.163Z,99
2017-09-15T03:34:42.545Z,99
2017-09-15T03:35:44.946Z,99
2017-09-15T03:36:47.334Z,99
2017-09-15T03:37:49.716Z,99
2017-09-15T03:38:52.118Z,99
2017-09-15T03:39:54.509Z,99
2017-09-15T03:40:56.902Z,99
2017-09-15T03:41:59.303Z,99
2017-09-15T03:43:02.047Z,99
2017-09-15T03:44:04.779Z,99
2017-09-15T03:45:07.181Z,99
2017-09-15T03:46:09.565Z,99
2017-09-15T03:47:11.950Z,99
2017-09-15T03:48:14.342Z,99
2017-09-15T03:49:16.736Z,99
2017-09-15T03:50:19.120Z,99
2017-09-15T03:51:21.511Z,99
2017-09-15T03:52:23.914Z,99
2017-09-15T03:53:26.305Z,99
2017-09-15T03:54:28.690Z,99
2017-09-15T03:55:31.084Z,99
2017-09-15T03:56:33.842Z,99
2017-09-15T03:57:36.234Z,99
2017-09-15T03:58:38.622Z,99
2017-09-15T03:59:41.344Z,99
2017-09-15T04:00:43.728Z,99
2017-09-15T04:01:46.466Z,99
2017-09-15T04:02:48.854Z,99
2017-09-15T04:03:51.241Z,99
2017-09-15T04:04:53.649Z,99
2017-09-15T04:05:56.032Z,99
2017-09-15T04:06:58.425Z,99
2017-09-15T04:08:00.823Z,99
2017-09-15T04:09:03.212Z,99
2017-09-15T04:10:05.948Z,99
2017-09-15T04:11:08.336Z,99
2017-09-15T04:12:10.721Z,99
2017-09-15T04:13:13.118Z,99
2017-09-15T04:14:15.859Z,99
2017-09-15T04:15:18.245Z,99
2017-09-15T04:16:20.638Z,99
2017-09-15T04:17:23.035Z,99
2017-09-15T04:18:25.772Z,99
2017-09-15T04:19:28.527Z,99
2017-09-15T04:20:30.926Z,99
2017-09-15T04:21:33.314Z,99
2017-09-15T04:22:35.697Z,99
2017-09-15T04:23:38.084Z,99
2017-09-15T04:24:40.811Z,99
2017-09-15T04:25:43.208Z,99
2017-09-15T04:26:45.595Z,99
2017-09-15T04:27:48.320Z,99
2017-09-15T04:28:50.717Z,99
2017-09-15T04:29:53.115Z,99
2017-09-15T04:30:55.504Z,99
2017-09-15T04:31:57.902Z,99
2017-09-15T04:33:00.285Z,99
2017-09-15T04:34:02.678Z,99
2017-09-15T04:35:05.073Z,99
2017-09-15T04:36:07.459Z,99
2017-09-15T04:37:09.849Z,99
2017-09-15T04:38:12.585Z,99
2017-09-15T04:39:14.986Z,99
2017-09-15T04:40:17.386Z,99
2017-09-15T04:41:19.776Z,99
2017-09-15T04:42:22.161Z,99
2017-09-15T04:43:24.553Z,99
2017-09-15T04:44:26.948Z,99
2017-09-15T04:45:29.338Z,99
2017-09-15T04:46:31.730Z,99
2017-09-15T04:47:34.163Z,99
2017-09-15T04:48:36.604Z,99
2017-09-15T04:49:39.049Z,99
2017-09-15T04:50:41.500Z,99
2017-09-15T04:51:43.940Z,99
2017-09-15T04:52:46.393Z,99
2017-09-15T04:53:48.862Z,99
2017-09-15T04:54:51.706Z,99
2017-09-15T04:55:54.498Z,99
2017-09-15T04:56:56.958Z,99
2017-09-15T04:57:59.410Z,99
2017-09-15T04:59:01.879Z,99
2017-09-15T05:00:04.323Z,99
2017-09-15T05:01:06.771Z,99
2017-09-15T05:02:09.572Z,99
2017-09-15T05:03:12.056Z,99
2017-09-15T05:04:14.505Z,99
2017-09-15T05:05:16.950Z,99
2017-09-15T05:06:19.390Z,99
2017-09-15T05:07:21.850Z,99
2017-09-15T05:08:24.290Z,99
2017-09-15T05:09:26.740Z,99
2017-09-15T05:10:29.206Z,99
2017-09-15T05:11:31.662Z,99
2017-09-15T05:12:34.107Z,99
2017-09-15T05:13:36.562Z,99
2017-09-15T05:14:39.009Z,99
2017-09-15T05:15:41.478Z,99
2017-09-15T05:16:43.931Z,99
2017-09-15T05:17:46.429Z,99
2017-09-15T05:18:48.882Z,99
2017-09-15T05:19:51.328Z,99
2017-09-15T05:20:53.786Z,99
2017-09-15T05:21:56.234Z,99
2017-09-15T05:22:58.678Z,98
2017-09-15T05:24:01.127Z,98
2017-09-15T05:25:03.581Z,98
2017-09-15T05:26:06.043Z,98
2017-09-15T05:27:08.494Z,98
2017-09-15T05:28:11.291Z,98
2017-09-15T05:29:13.738Z,98
2017-09-15T05:30:16.182Z,98
2017-09-15T05:31:18.628Z,98
2017-09-15T05:32:21.074Z,98
2017-09-15T05:33:23.526Z,98
2017-09-15T05:34:25.970Z,98
2017-09-15T05:35:28.423Z,98
2017-09-15T05:36:30.868Z,98
2017-09-15T05:37:33.318Z,98
2017-09-15T05:38:35.765Z,98
2017-09-15T05:39:38.228Z,98
2017-09-15T05:40:40.676Z,98
2017-09-15T05:41:43.146Z,98
2017-09-15T05:42:45.585Z,98
2017-09-15T05:43:48.029Z,98
2017-09-15T05:44:50.485Z,98
2017-09-15T05:45:52.938Z,98
2017-09-15T05:46:55.386Z,98
2017-09-15T05:47:57.855Z,98
2017-09-15T05:49:00.319Z,98
2017-09-15T05:50:02.778Z,98
2017-09-15T05:51:05.222Z,98
2017-09-15T05:52:07.683Z,97
2017-09-15T05:53:10.482Z,97
2017-09-15T05:54:12.931Z,97
2017-09-15T05:55:15.380Z,97
2017-09-15T05:56:17.834Z,97
2017-09-15T05:57:20.290Z,97
2017-09-15T05:58:22.744Z,97
2017-09-15T05:59:25.191Z,97
2017-09-15T06:00:27.633Z,97
2017-09-15T06:01:30.112Z,97
2017-09-15T06:02:32.559Z,97
2017-09-15T06:03:35.013Z,97
2017-09-15T06:04:37.469Z,97
2017-09-15T06:05:39.902Z,97
2017-09-15T06:06:42.374Z,97
2017-09-15T06:07:44.832Z,97
2017-09-15T06:08:47.282Z,97
2017-09-15T06:09:50.087Z,97
2017-09-15T06:10:52.884Z,96
2017-09-15T06:11:55.322Z,96
2017-09-15T06:12:57.778Z,96
2017-09-15T06:14:00.235Z,96
2017-09-15T06:15:02.673Z,96
2017-09-15T06:16:05.122Z,96
2017-09-15T06:17:07.570Z,96
2017-09-15T06:18:10.356Z,96
2017-09-15T06:19:12.816Z,96
2017-09-15T06:20:15.274Z,96
2017-09-15T06:21:17.721Z,96
2017-09-15T06:22:20.172Z,96
2017-09-15T06:23:22.621Z,96
2017-09-15T06:24:25.060Z,95
2017-09-15T06:25:27.508Z,95
2017-09-15T06:26:29.964Z,95
2017-09-15T06:27:32.411Z,95
2017-09-15T06:28:34.864Z,95
2017-09-15T06:29:37.311Z,95
2017-09-15T06:30:39.760Z,95
2017-09-15T06:31:42.215Z,95
2017-09-15T06:32:44.662Z,95
2017-09-15T06:33:47.123Z,95
2017-09-15T06:34:49.572Z,95
2017-09-15T06:35:52.026Z,95
2017-09-15T06:36:54.466Z,95
2017-09-15T06:37:57.254Z,95
2017-09-15T06:39:00.044Z,94
2017-09-15T06:40:02.495Z,94
2017-09-15T06:41:04.938Z,94
2017-09-15T06:42:07.383Z,94
2017-09-15T06:43:10.178Z,94
2017-09-15T06:44:12.619Z,94
2017-09-15T06:45:15.065Z,93
2017-09-15T06:46:17.521Z,93
2017-09-15T06:47:20.315Z,92
2017-09-15T06:48:22.745Z,92
2017-09-15T06:49:25.193Z,92
2017-09-15T06:50:27.646Z,92
2017-09-15T06:51:30.094Z,92
2017-09-15T06:52:32.544Z,92
2017-09-15T06:53:34.987Z,92
2017-09-15T06:54:37.425Z,92
2017-09-15T06:55:39.880Z,92
2017-09-15T06:56:42.321Z,92
2017-09-15T06:57:44.767Z,91
2017-09-15T06:58:47.218Z,91
2017-09-15T06:59:49.664Z,91
2017-09-15T07:00:52.104Z,90
2017-09-15T07:01:54.560Z,90
2017-09-15T07:02:57.000Z,90
2017-09-15T07:03:59.442Z,90
2017-09-15T07:05:01.897Z,90
2017-09-15T07:06:04.345Z,90
2017-09-15T07:07:06.793Z,90
2017-09-15T07:08:09.250Z,90
2017-09-15T07:09:11.705Z,90
2017-09-15T07:10:14.159Z,90
2017-09-15T07:11:16.606Z,90
2017-09-15T07:12:19.044Z,89
2017-09-15T07:13:21.496Z,89
2017-09-15T07:14:23.940Z,89
2017-09-15T07:15:26.389Z,89
2017-09-15T07:16:28.840Z,89
2017-09-15T07:17:31.297Z,89
2017-09-15T07:18:33.743Z,89
2017-09-15T07:19:36.190Z,89
2017-09-15T07:20:38.636Z,89
2017-09-15T07:21:41.097Z,89
2017-09-15T07:22:43.537Z,89
2017-09-15T07:23:45.980Z,88
2017-09-15T07:24:48.433Z,88
2017-09-15T07:25:50.881Z,88
2017-09-15T07:26:53.340Z,88
2017-09-15T07:27:55.788Z,89
2017-09-15T07:28:58.233Z,89
2017-09-15T07:30:00.684Z,88
2017-09-15T07:31:03.503Z,88
2017-09-15T07:32:05.941Z,88
2017-09-15T07:33:08.390Z,88
2017-09-15T07:34:10.837Z,88
2017-09-15T07:35:13.292Z,87
2017-09-15T07:36:15.789Z,87
2017-09-15T07:37:18.546Z,87
2017-09-15T07:38:20.985Z,87
2017-09-15T07:39:23.438Z,86
2017-09-15T07:40:25.889Z,86
2017-09-15T07:41:28.337Z,86
2017-09-15T07:42:30.784Z,86
2017-09-15T07:43:33.228Z,86
2017-09-15T07:44:36.024Z,86
2017-09-15T07:45:38.485Z,86
2017-09-15T07:46:40.935Z,86
2017-09-15T07:47:43.375Z,86
2017-09-15T07:48:45.821Z,87
2017-09-15T07:49:48.272Z,85
2017-09-15T07:50:51.062Z,85
2017-09-15T07:51:53.506Z,85
2017-09-15T07:52:55.958Z,85
2017-09-15T07:53:58.397Z,85
2017-09-15T07:55:00.851Z,85
2017-09-15T07:56:03.299Z,84
2017-09-15T07:57:05.752Z,84
2017-09-15T07:58:08.204Z,84
2017-09-15T07:59:10.660Z,83
2017-09-15T08:00:13.101Z,83
2017-09-15T08:01:15.899Z,83
2017-09-15T08:02:18.347Z,83
2017-09-15T08:03:20.800Z,83
2017-09-15T08:04:23.254Z,83
2017-09-15T08:05:25.703Z,82
2017-09-15T08:06:28.157Z,84
2017-09-15T08:07:30.614Z,83
2017-09-15T08:08:33.053Z,84
2017-09-15T08:09:35.515Z,82
2017-09-15T08:10:37.955Z,82
2017-09-15T08:11:40.412Z,83
2017-09-15T08:12:42.858Z,83
2017-09-15T08:13:45.305Z,82
2017-09-15T08:14:47.765Z,83
2017-09-15T08:15:50.214Z,82
2017-09-15T08:16:52.666Z,81
2017-09-15T08:17:55.127Z,81
2017-09-15T08:18:57.568Z,81
2017-09-15T08:20:00.016Z,81
2017-09-15T08:21:02.474Z,80
2017-09-15T08:22:04.921Z,80
2017-09-15T08:23:07.371Z,81
2017-09-15T08:24:09.824Z,81
2017-09-15T08:25:12.268Z,81
2017-09-15T08:26:14.724Z,81
2017-09-15T08:27:17.177Z,80
2017-09-15T08:28:19.621Z,80
2017-09-15T08:29:22.071Z,79
2017-09-15T08:30:24.527Z,79
2017-09-15T08:31:27.331Z,79
2017-09-15T08:32:29.782Z,79
2017-09-15T08:33:32.574Z,80
2017-09-15T08:34:35.024Z,81
2017-09-15T08:35:37.482Z,80
2017-09-15T08:36:39.933Z,80
2017-09-15T08:37:42.377Z,79
2017-09-15T08:38:44.845Z,79
2017-09-15T08:39:47.293Z,78
2017-09-15T08:40:49.741Z,78
2017-09-15T08:41:52.194Z,77
2017-09-15T08:42:54.641Z,77
2017-09-15T08:43:57.456Z,77
2017-09-15T08:44:59.920Z,78
2017-09-15T08:46:02.367Z,78
2017-09-15T08:47:04.821Z,77
2017-09-15T08:48:07.622Z,76
2017-09-15T08:49:10.418Z,77
2017-09-15T08:50:13.210Z,77
2017-09-15T08:51:15.659Z,76
2017-09-15T08:52:18.126Z,75
2017-09-15T08:53:20.585Z,75
2017-09-15T08:54:23.043Z,76
2017-09-15T08:55:25.505Z,77
2017-09-15T08:56:27.958Z,76
2017-09-15T08:57:30.420Z,76
2017-09-15T08:58:32.871Z,76
2017-09-15T08:59:35.317Z,75
2017-09-15T09:00:37.772Z,75
2017-09-15T09:01:40.218Z,75
2017-09-15T09:02:42.677Z,73
2017-09-15T09:03:45.127Z,74
2017-09-15T09:04:47.927Z,74
2017-09-15T09:05:50.376Z,75
2017-09-15T09:06:52.827Z,74
2017-09-15T09:07:55.288Z,74
2017-09-15T09:08:57.754Z,73
2017-09-15T09:10:00.215Z,73
2017-09-15T09:11:02.677Z,73
2017-09-15T09:12:05.469Z,72
2017-09-15T09:13:07.926Z,71
2017-09-15T09:14:10.386Z,71
2017-09-15T09:15:12.837Z,71
2017-09-15T09:16:15.303Z,71
2017-09-15T09:17:17.756Z,71
2017-09-15T09:18:20.213Z,70
2017-09-15T09:19:22.672Z,71
2017-09-15T09:20:25.137Z,72
2017-09-15T09:21:27.593Z,72
2017-09-15T09:22:30.055Z,71
2017-09-15T09:23:32.503Z,71
2017-09-15T09:24:35.305Z,68
2017-09-15T09:25:37.760Z,69
2017-09-15T09:26:40.210Z,68
2017-09-15T09:27:42.667Z,68
2017-09-15T09:28:45.116Z,71
2017-09-15T09:29:47.568Z,69
2017-09-15T09:30:50.025Z,69
2017-09-15T09:31:52.476Z,70
2017-09-15T09:32:54.932Z,72
2017-09-15T09:33:57.394Z,70
2017-09-15T09:34:59.844Z,71
2017-09-15T09:36:02.309Z,69
2017-09-15T09:37:04.759Z,68
2017-09-15T09:38:07.219Z,68
2017-09-15T09:39:09.677Z,68
2017-09-15T09:40:12.130Z,68
2017-09-15T09:41:14.583Z,68
2017-09-15T09:42:17.039Z,68
2017-09-15T09:43:19.495Z,68
2017-09-15T09:44:21.956Z,68
2017-09-15T09:45:24.411Z,68
2017-09-15T09:46:26.867Z,65
2017-09-15T09:47:29.330Z,65
2017-09-15T09:48:31.789Z,66
2017-09-15T09:49:34.575Z,66
2017-09-15T09:50:37.040Z,65
2017-09-15T09:51:39.491Z,64
2017-09-15T09:52:41.950Z,65
2017-09-15T09:53:44.753Z,65
2017-09-15T09:54:47.204Z,64
2017-09-15T09:55:49.658Z,67
2017-09-15T09:56:52.125Z,64
2017-09-15T09:57:54.577Z,65
2017-09-15T09:58:57.036Z,64
2017-09-15T09:59:59.499Z,63
2017-09-15T10:01:01.947Z,64
2017-09-15T10:02:04.746Z,63
2017-09-15T10:03:07.206Z,63
2017-09-15T10:04:09.665Z,61
2017-09-15T10:05:12.121Z,61
2017-09-15T10:06:14.576Z,61
2017-09-15T10:07:17.027Z,62
2017-09-15T10:08:19.497Z,61
2017-09-15T10:09:21.950Z,62
2017-09-15T10:10:24.400Z,63
2017-09-15T10:11:27.201Z,62
2017-09-15T10:12:29.662Z,64
2017-09-15T10:13:32.467Z,63
2017-09-15T10:14:34.929Z,62
2017-09-15T10:15:37.381Z,62
2017-09-15T10:16:40.175Z,62
2017-09-15T10:17:42.628Z,62
2017-09-15T10:18:45.088Z,61
2017-09-15T10:19:47.545Z,62
2017-09-15T10:20:50.005Z,62
2017-09-15T10:21:52.453Z,61
2017-09-15T10:22:54.927Z,62
2017-09-15T10:23:57.379Z,61
2017-09-15T10:24:59.836Z,61
2017-09-15T10:26:02.288Z,62
2017-09-15T10:27:04.742Z,63
2017-09-15T10:28:07.205Z,61
2017-09-15T10:29:09.662Z,59
2017-09-15T10:30:12.124Z,60
2017-09-15T10:31:14.596Z,59
2017-09-15T10:32:17.393Z,60
2017-09-15T10:33:19.855Z,60
2017-09-15T10:34:22.307Z,60
2017-09-15T10:35:24.760Z,63
2017-09-15T10:36:27.220Z,61
2017-09-15T10:37:29.676Z,62
2017-09-15T10:38:32.130Z,63
2017-09-15T10:39:34.930Z,63
2017-09-15T10:40:37.386Z,62
2017-09-15T10:41:39.851Z,62
2017-09-15T10:42:42.312Z,62
2017-09-15T10:43:45.114Z,61
2017-09-15T10:44:47.588Z,61
2017-09-15T10:45:50.390Z,62
2017-09-15T10:46:52.840Z,61
2017-09-15T10:47:55.644Z,61
2017-09-15T10:48:58.106Z,63
2017-09-15T10:50:00.556Z,60
2017-09-15T10:51:03.018Z,63
2017-09-15T10:52:05.468Z,61
2017-09-15T10:53:07.924Z,65
2017-09-15T10:54:10.725Z,62
2017-09-15T10:55:13.177Z,61
2017-09-15T10:56:15.617Z,59
2017-09-15T10:57:18.077Z,59
2017-09-15T10:58:20.535Z,58
2017-09-15T10:59:22.991Z,58
2017-09-15T11:00:25.450Z,59
2017-09-15T11:01:27.904Z,60
2017-09-15T11:02:30.366Z,59
2017-09-15T11:03:32.820Z,60
2017-09-15T11:04:35.616Z,61
2017-09-15T11:05:38.064Z,60
2017-09-15T11:06:40.521Z,60
2017-09-15T11:07:42.978Z,60
2017-09-15T11:08:45.431Z,62
2017-09-15T11:09:47.885Z,61
2017-09-15T11:10:50.338Z,60
2017-09-15T11:11:52.795Z,62
2017-09-15T11:12:55.251Z,61
2017-09-15T11:13:57.707Z,62
2017-09-15T11:15:00.152Z,60
2017-09-15T11:16:02.611Z,64
2017-09-15T11:17:05.078Z,60
2017-09-15T11:18:07.526Z,62
2017-09-15T11:19:10.322Z,61
2017-09-15T11:20:12.772Z,61
2017-09-15T11:21:15.220Z,59
2017-09-15T11:22:17.685Z,60
2017-09-15T11:23:20.140Z,60
2017-09-15T11:24:22.593Z,60
2017-09-15T11:25:25.058Z,59
2017-09-15T11:26:27.515Z,57
2017-09-15T11:27:29.939Z,58
2017-09-15T11:28:32.337Z,57
2017-09-15T11:29:34.744Z,58
2017-09-15T11:30:37.153Z,56
2017-09-15T11:31:39.565Z,57
2017-09-15T11:32:41.972Z,58
2017-09-15T11:33:44.371Z,57
2017-09-15T11:34:46.770Z,58
2017-09-15T11:35:49.175Z,57
2017-09-15T11:36:51.588Z,59
2017-09-15T11:37:54.331Z,57
2017-09-15T11:38:56.726Z,58
2017-09-15T11:39:59.141Z,58
2017-09-15T11:41:01.551Z,58
2017-09-15T11:42:03.960Z,58
2017-09-15T11:43:06.362Z,59
2017-09-15T11:44:08.771Z,60
2017-09-15T11:45:11.510Z,60
2017-09-15T11:46:13.902Z,59
2017-09-15T11:47:16.314Z,61
2017-09-15T11:48:18.713Z,62
2017-09-15T11:49:21.119Z,59
2017-09-15T11:50:23.533Z,61
2017-09-15T11:51:25.932Z,59
2017-09-15T11:52:28.330Z,59
2017-09-15T11:53:30.744Z,56
2017-09-15T11:54:33.142Z,55
2017-09-15T11:55:35.551Z,54
2017-09-15T11:56:38.291Z,54
2017-09-15T11:57:40.689Z,54
2017-09-15T11:58:43.092Z,57
2017-09-15T11:59:45.509Z,55
2017-09-15T12:00:47.914Z,53
2017-09-15T12:01:50.324Z,54
2017-09-15T12:02:52.722Z,54
2017-09-15T12:03:55.130Z,55
2017-09-15T12:04:57.530Z,57
2017-09-15T12:05:59.936Z,56
2017-09-15T12:07:02.332Z,56
2017-09-15T12:08:04.737Z,56
2017-09-15T12:09:07.145Z,57
2017-09-15T12:10:09.551Z,55
2017-09-15T12:11:11.954Z,56
2017-09-15T12:12:14.366Z,57
2017-09-15T12:13:16.761Z,56
2017-09-15T12:14:19.173Z,58
2017-09-15T12:15:21.587Z,57
2017-09-15T12:16:24.334Z,56
2017-09-15T12:17:26.737Z,58
2017-09-15T12:18:29.150Z,57
2017-09-15T12:19:31.554Z,56
2017-09-15T12:20:33.963Z,56
2017-09-15T12:21:36.371Z,57
2017-09-15T12:22:38.774Z,56
2017-09-15T12:23:41.184Z,56
2017-09-15T12:24:43.587Z,55
2017-09-15T12:25:45.985Z,54
2017-09-15T12:26:48.729Z,53
2017-09-15T12:27:51.135Z,54
2017-09-15T12:28:53.541Z,56
2017-09-15T12:29:55.947Z,57
2017-09-15T12:30:58.348Z,57
2017-09-15T12:32:00.752Z,55
2017-09-15T12:33:03.155Z,55
2017-09-15T12:34:05.557Z,56
2017-09-15T12:35:07.967Z,57
2017-09-15T12:36:10.361Z,57
2017-09-15T12:37:13.130Z,57
2017-09-15T12:38:15.533Z,57
2017-09-15T12:39:17.933Z,57
2017-09-15T12:40:20.342Z,58
2017-09-15T12:41:22.745Z,57
2017-09-15T12:42:25.146Z,58
2017-09-15T12:43:27.546Z,58
2017-09-15T12:44:29.953Z,59
2017-09-15T12:45:32.348Z,61
2017-09-15T12:46:34.757Z,59
2017-09-15T12:47:37.149Z,64
2017-09-15T12:48:39.558Z,58
2017-09-15T12:49:41.963Z,59
2017-09-15T12:50:44.376Z,59
2017-09-15T12:51:46.775Z,56
2017-09-15T12:52:49.184Z,56
2017-09-15T12:53:51.928Z,56
2017-09-15T12:54:54.341Z,56
2017-09-15T12:55:56.748Z,55
2017-09-15T12:56:59.493Z,55
2017-09-15T12:58:01.890Z,55
2017-09-15T12:59:04.293Z,56
2017-09-15T13:00:06.689Z,53
2017-09-15T13:01:09.092Z,52
2017-09-15T13:02:11.489Z,53
2017-09-15T13:03:13.896Z,52
2017-09-15T13:04:16.311Z,53
2017-09-15T13:05:18.716Z,53
2017-09-15T13:06:21.129Z,53
2017-09-15T13:07:23.532Z,52
2017-09-15T13:08:25.936Z,50
2017-09-15T13:09:28.351Z,50
2017-09-15T13:10:30.754Z,50
2017-09-15T13:11:33.147Z,50
2017-09-15T13:12:35.552Z,50
2017-09-15T13:13:37.965Z,51
2017-09-15T13:14:40.370Z,50
2017-09-15T13:15:42.772Z,52
2017-09-15T13:16:45.175Z,51
2017-09-15T13:17:47.606Z,51
2017-09-15T13:18:50.006Z,52
2017-09-15T13:19:52.420Z,53
2017-09-15T13:20:55.152Z,53
2017-09-15T13:21:57.556Z,53
2017-09-15T13:22:59.963Z,54
2017-09-15T13:24:02.362Z,55
2017-09-15T13:25:04.772Z,54
2017-09-15T13:26:07.177Z,55
2017-09-15T13:27:09.569Z,55
2017-09-15T13:28:11.985Z,55
2017-09-15T13:29:14.386Z,54
2017-09-15T13:30:16.790Z,54
2017-09-15T13:31:19.197Z,54
2017-09-15T13:32:21.612Z,53
2017-09-15T13:33:24.035Z,55
2017-09-15T13:34:26.804Z,58
2017-09-15T13:35:29.199Z,55
2017-09-15T13:36:31.601Z,54
2017-09-15T13:37:34.008Z,55
2017-09-15T13:38:36.424Z,59
2017-09-15T13:39:38.825Z,56
2017-09-15T13:40:41.234Z,53
2017-09-15T13:41:43.634Z,53
2017-09-15T13:42:46.042Z,56
2017-09-15T13:43:48.450Z,55
2017-09-15T13:44:50.869Z,55
2017-09-15T13:45:53.478Z,55
2017-09-15T13:46:55.865Z,54
2017-09-15T13:47:58.274Z,54
2017-09-15T13:49:00.682Z,54
2017-09-15T13:50:03.096Z,54
2017-09-15T13:51:05.511Z,55
2017-09-15T13:52:07.906Z,55
2017-09-15T13:53:10.321Z,54
2017-09-15T13:54:12.745Z,55
2017-09-15T13:55:15.141Z,57
2017-09-15T13:56:17.548Z,56
2017-09-15T13:57:19.956Z,57
2017-09-15T13:58:22.364Z,58
2017-09-15T13:59:24.775Z,60
2017-09-15T14:00:27.186Z,60
2017-09-15T14:01:29.577Z,62
2017-09-15T14:02:31.988Z,60
2017-09-15T14:03:34.401Z,59
2017-09-15T14:04:36.798Z,60
2017-09-15T14:05:39.212Z,60
2017-09-15T14:06:41.608Z,59
2017-09-15T14:07:44.010Z,59
2017-09-15T14:08:46.427Z,58
2017-09-15T14:09:48.827Z,58
2017-09-15T14:10:51.228Z,58
2017-09-15T14:11:53.976Z,60
2017-09-15T14:12:56.370Z,61
2017-09-15T14:13:58.778Z,58
2017-09-15T14:15:01.230Z,59
2017-09-15T14:16:03.635Z,61
2017-09-15T14:17:06.042Z,61
2017-09-15T14:18:08.455Z,60
2017-09-15T14:19:10.856Z,59
2017-09-15T14:20:13.271Z,60
2017-09-15T14:21:15.671Z,60
2017-09-15T14:22:18.077Z,59
2017-09-15T14:23:20.478Z,60
2017-09-15T14:24:22.886Z,60
2017-09-15T14:25:25.281Z,60
2017-09-15T14:26:27.695Z,62
2017-09-15T14:27:30.091Z,62
2017-09-15T14:28:32.501Z,63
2017-09-15T14:29:34.906Z,62
2017-09-15T14:30:37.313Z,62
2017-09-15T14:31:39.718Z,63
2017-09-15T14:32:42.135Z,61
2017-09-15T14:33:44.526Z,61
2017-09-15T14:34:46.947Z,61
2017-09-15T14:35:49.349Z,65
2017-09-15T14:36:51.745Z,62
2017-09-15T14:37:54.161Z,62
2017-09-15T14:38:56.570Z,64
2017-09-15T14:39:58.968Z,65
2017-09-15T14:41:01.554Z,65
2017-09-15T14:42:04.303Z,63
2017-09-15T14:43:06.710Z,63
2017-09-15T14:44:09.110Z,62
2017-09-15T14:45:11.613Z,60
2017-09-15T14:46:14.022Z,60
2017-09-15T14:47:16.432Z,61
2017-09-15T14:48:18.841Z,62
2017-09-15T14:49:21.253Z,63
2017-09-15T14:50:23.650Z,62